Friendly Confines — WDI1128 — position and weather

sailwx.info

Track history (hours):
 
Tides and Currents Weather Stations Pressure Air Temp Water Temp Dewpoint Dewpoint Depression Visibility Wind Speed Wind Dir Waves Ship Positions

Friendly Confines

Last reported at 2018-Jul-21 13:24 UTC. Time now 2018-Jul-21 15:29 UTC.
Position N 42°22' W 071°03'.

Length 34 m.

Type: Pleasure craft. MMSI: 367674920.

Date/timePositionNaut miles runAvg speedWind from/ knotsBaromVisibWave heightAir tempDewpointWater temp
2018-Jul-21 13:24N 42°22' W 071°03'0 0.0
2018-Jul-21 12:57N 42°22' W 071°03'0 0.0
2018-Jul-21 12:30N 42°22' W 071°03'0 0.0
2018-Jul-21 11:54N 42°22' W 071°03'0 0.0
2018-Jul-21 11:27N 42°22' W 071°03'0 0.0
2018-Jul-21 10:57N 42°22' W 071°03'0 0.0
2018-Jul-21 10:27N 42°22' W 071°03'0 0.0
2018-Jul-21 10:00N 42°22' W 071°03'0 0.0
2018-Jul-21 09:27N 42°22' W 071°03'0 0.0
2018-Jul-21 08:57N 42°22' W 071°03'0 0.0
2018-Jul-21 08:30N 42°22' W 071°03'0 0.0
2018-Jul-21 08:00N 42°22' W 071°03'0 0.0
2018-Jul-21 07:27N 42°22' W 071°03'0 0.0
2018-Jul-20 21:06N 42°22' W 071°03'0 0.0
2018-Jul-20 20:48N 42°22' W 071°03'0 0.0
2018-Jul-20 20:18N 42°22' W 071°03'0 0.0
2018-Jul-20 19:33N 42°22' W 071°03'0 0.1
2018-Jul-20 19:30N 42°22' W 071°03'0 0.0
2018-Jul-20 19:00N 42°22' W 071°03'0 0.0
2018-Jul-20 18:30N 42°22' W 071°03'0 0.0
2018-Jul-20 18:00N 42°22' W 071°03'0 0.0
2018-Jul-20 17:30N 42°22' W 071°03'0 0.0
2018-Jul-20 17:00N 42°22' W 071°03'0 0.0
2018-Jul-20 16:27N 42°22' W 071°03'0 0.0
2018-Jul-20 16:00N 42°22' W 071°03'0 0.0
2018-Jul-20 15:27N 42°22' W 071°03'0 0.0
2018-Jul-20 15:00N 42°22' W 071°03'0 0.0
2018-Jul-20 14:30N 42°22' W 071°03'0 0.0
2018-Jul-20 13:54N 42°22' W 071°03'0 0.0
2018-Jul-20 13:27N 42°22' W 071°03'0 0.0
2018-Jul-20 01:36N 42°22' W 071°03'0 0.0
2018-Jul-20 01:24N 42°22' W 071°03'0 0.0
2018-Jul-20 01:00N 42°22' W 071°03'0 0.0
2018-Jul-20 00:18N 42°22' W 071°03'0 0.0
2018-Jul-19 23:54N 42°22' W 071°03'0 0.0
2018-Jul-19 23:27N 42°22' W 071°03'0 0.0
2018-Jul-19 22:57N 42°22' W 071°03'0 0.0
2018-Jul-19 22:30N 42°22' W 071°03'0 0.0
2018-Jul-19 22:00N 42°22' W 071°03'0 0.0
2018-Jul-19 21:30N 42°22' W 071°03'0 0.0
2018-Jul-19 20:54N 42°22' W 071°03'0 0.0
2018-Jul-19 20:30N 42°22' W 071°03'0 0.0
2018-Jul-19 19:54N 42°22' W 071°03'0 0.0
2018-Jul-19 18:24N 42°22' W 071°03'0 0.0
2018-Jul-19 12:00N 42°22' W 071°03'0 0.0
2018-Jul-19 02:06N 42°22' W 071°03'0 0.0
2018-Jul-19 01:45N 42°22' W 071°03'0 0.0
2018-Jul-19 01:30N 42°22' W 071°03'0 0.0
2018-Jul-19 01:00N 42°22' W 071°03'  
2018-Jul-14 21:05N 39°02' W 075°09'220.6
2018-Jul-14 21:00N 39°03' W 075°10'1020.3
2018-Jul-14 20:31N 39°12' W 075°17'1121.6
2018-Jul-14 19:59N 39°21' W 075°26'1020.8
2018-Jul-14 19:30N 39°29' W 075°34'510.0
2018-Jul-14 19:01N 39°33' W 075°36'611.4
2018-Jul-14 18:29N 39°32' W 075°44'510.1
2018-Jul-14 18:00N 39°32' W 075°50'5 9.8
2018-Jul-14 17:28N 39°30' W 075°56'3913.0
2018-Jul-14 14:27N 38°58' W 076°26'3 0.1
2018-Jul-13 20:56N 38°58' W 076°29'510.7
2018-Jul-13 20:29N 38°55' W 076°24'31 4.3
2018-Jul-13 13:17N 38°45' W 077°02'310.7
2018-Jul-13 13:00N 38°48' W 077°02'4 7.5
2018-Jul-13 12:25N 38°53' W 077°02'0 0.0
2018-Jul-13 11:58N 38°53' W 077°02'0 0.0
2018-Jul-13 11:28N 38°53' W 077°02'0 0.0
2018-Jul-13 10:55N 38°53' W 077°02'0 0.0
2018-Jul-13 10:28N 38°53' W 077°02'0 0.0
2018-Jul-13 09:58N 38°53' W 077°02'0 0.0
2018-Jul-13 09:28N 38°53' W 077°02'0 0.0
2018-Jul-13 08:58N 38°53' W 077°02'0 0.0
2018-Jul-13 08:28N 38°53' W 077°02'0 0.0
2018-Jul-13 07:58N 38°53' W 077°02'0 0.0
2018-Jul-13 07:28N 38°53' W 077°02'0 0.0
2018-Jul-13 06:58N 38°53' W 077°02'0 0.0
2018-Jul-13 06:28N 38°53' W 077°02'0 0.0
2018-Jul-13 05:58N 38°53' W 077°02'0 0.0
2018-Jul-13 05:28N 38°53' W 077°02'0 0.0
2018-Jul-13 04:58N 38°53' W 077°02'0 0.0
2018-Jul-13 04:22N 38°53' W 077°02'0 0.0
2018-Jul-13 03:58N 38°53' W 077°02'0 0.0
2018-Jul-13 03:28N 38°53' W 077°02'0 0.0
2018-Jul-13 02:58N 38°53' W 077°02'0 0.0
2018-Jul-13 02:28N 38°53' W 077°02'0 0.0
2018-Jul-13 01:58N 38°53' W 077°02'0 0.0
2018-Jul-13 01:28N 38°53' W 077°02'0 0.0
2018-Jul-13 00:58N 38°53' W 077°02'0 0.0
2018-Jul-13 00:28N 38°53' W 077°02'0 0.0
2018-Jul-12 23:58N 38°53' W 077°02'0 0.0
2018-Jul-12 23:28N 38°53' W 077°02'0 0.0
2018-Jul-12 22:58N 38°53' W 077°02'0 0.0
2018-Jul-12 22:28N 38°53' W 077°02'0 0.0
2018-Jul-12 21:58N 38°53' W 077°02'0 0.0
2018-Jul-12 21:28N 38°53' W 077°02'0 0.0
2018-Jul-12 20:55N 38°53' W 077°02'0 0.0
2018-Jul-12 20:19N 38°53' W 077°02'0 0.0
2018-Jul-12 19:55N 38°53' W 077°02'0 0.0
2018-Jul-12 19:28N 38°53' W 077°02'0 0.0
2018-Jul-12 18:58N 38°53' W 077°02'1 2.3
2018-Jul-12 18:29N 38°52' W 077°01'0 0.1
2018-Jul-12 17:56N 38°52' W 077°01'0 0.0
2018-Jul-12 17:30N 38°52' W 077°01'1 2.1
2018-Jul-12 16:59N 38°53' W 077°02'0 0.0
2018-Jul-12 16:26N 38°53' W 077°02'0 0.0
2018-Jul-12 15:59N 38°53' W 077°02'0 0.0
2018-Jul-12 15:26N 38°53' W 077°02'0 0.0
2018-Jul-12 14:59N 38°53' W 077°02'0 0.0
2018-Jul-12 14:29N 38°53' W 077°02'0 0.0
2018-Jul-12 14:00N 38°53' W 077°02'0 0.0
2018-Jul-12 13:29N 38°53' W 077°02'0 0.0
2018-Jul-12 13:00N 38°53' W 077°02'0 0.0
2018-Jul-12 12:29N 38°53' W 077°02'0 0.0
2018-Jul-12 11:59N 38°53' W 077°02'0 0.0
2018-Jul-12 11:26N 38°53' W 077°02'0 0.0
2018-Jul-12 10:59N 38°53' W 077°02'0 0.0
2018-Jul-12 10:29N 38°53' W 077°02'0 0.0
2018-Jul-12 09:59N 38°53' W 077°02'0 0.0
2018-Jul-12 09:29N 38°53' W 077°02'0 0.0
2018-Jul-12 08:59N 38°53' W 077°02'0 0.0
2018-Jul-12 08:29N 38°53' W 077°02'0 0.0
2018-Jul-12 07:59N 38°53' W 077°02'0 0.0
2018-Jul-12 07:26N 38°53' W 077°02'0 0.0
2018-Jul-12 06:59N 38°53' W 077°02'0 0.0
2018-Jul-12 06:29N 38°53' W 077°02'0 0.0
2018-Jul-12 05:59N 38°53' W 077°02'0 0.0
2018-Jul-12 05:29N 38°53' W 077°02'0 0.0
2018-Jul-12 04:59N 38°53' W 077°02'0 0.0
2018-Jul-12 04:29N 38°53' W 077°02'0 0.0
2018-Jul-12 03:56N 38°53' W 077°02'0 0.0
2018-Jul-12 03:29N 38°53' W 077°02'0 0.0
2018-Jul-12 02:59N 38°53' W 077°02'0 0.0
2018-Jul-12 02:29N 38°53' W 077°02'0 0.0
2018-Jul-12 01:59N 38°53' W 077°02'0 0.0
2018-Jul-12 01:29N 38°53' W 077°02'0 0.0
2018-Jul-12 00:59N 38°53' W 077°02'0 0.0
2018-Jul-12 00:29N 38°53' W 077°02'0 0.0
2018-Jul-11 23:59N 38°53' W 077°02'0 0.0
2018-Jul-11 23:29N 38°53' W 077°02'0 0.0
2018-Jul-11 22:59N 38°53' W 077°02'0 0.0
2018-Jul-11 22:29N 38°53' W 077°02'0 0.0
2018-Jul-11 21:59N 38°53' W 077°02'0 0.0
2018-Jul-11 21:29N 38°53' W 077°02'0 0.0
2018-Jul-11 20:59N 38°53' W 077°02'0 0.0
2018-Jul-11 20:29N 38°53' W 077°02'0 0.0
2018-Jul-11 19:59N 38°53' W 077°02'0 0.0
2018-Jul-11 19:29N 38°53' W 077°02'0 0.0
2018-Jul-11 18:59N 38°53' W 077°02'0 0.0
2018-Jul-11 18:29N 38°53' W 077°02'0 0.0
2018-Jul-11 17:59N 38°53' W 077°02'0 0.0
2018-Jul-11 17:17N 38°53' W 077°02'0 0.0
2018-Jul-11 16:56N 38°53' W 077°02'0 0.0
2018-Jul-11 16:29N 38°53' W 077°02'0 0.0
2018-Jul-11 15:59N 38°53' W 077°02'0 0.0
2018-Jul-11 15:29N 38°53' W 077°02'0 0.0
2018-Jul-11 14:59N 38°53' W 077°02'0 0.0
2018-Jul-11 14:29N 38°53' W 077°02'0 0.0
2018-Jul-11 13:59N 38°53' W 077°02'0 0.0
2018-Jul-11 13:29N 38°53' W 077°02'  
Track history (hours):
 
Tides and Currents Weather Stations Pressure Air Temp Water Temp Dewpoint Dewpoint Depression Visibility Wind Speed Wind Dir Waves Ship Positions

Friendly Confines

Last reported at 2018-Jul-21 13:24 UTC. Time now 2018-Jul-21 15:29 UTC.
Position N 42°22' W 071°03'.

Length 34 m.

Type: Pleasure craft. MMSI: 367674920.

Date/timePositionNaut miles runAvg speedWind from/ knotsBaromVisibWave heightAir tempDewpointWater temp
2018-Jul-21 13:24N 42°22' W 071°03'0 0.0
2018-Jul-21 12:57N 42°22' W 071°03'0 0.0
2018-Jul-21 12:30N 42°22' W 071°03'0 0.0
2018-Jul-21 11:54N 42°22' W 071°03'0 0.0
2018-Jul-21 11:27N 42°22' W 071°03'0 0.0
2018-Jul-21 10:57N 42°22' W 071°03'0 0.0
2018-Jul-21 10:27N 42°22' W 071°03'0 0.0
2018-Jul-21 10:00N 42°22' W 071°03'0 0.0
2018-Jul-21 09:27N 42°22' W 071°03'0 0.0
2018-Jul-21 08:57N 42°22' W 071°03'0 0.0
2018-Jul-21 08:30N 42°22' W 071°03'0 0.0
2018-Jul-21 08:00N 42°22' W 071°03'0 0.0
2018-Jul-21 07:27N 42°22' W 071°03'0 0.0
2018-Jul-20 21:06N 42°22' W 071°03'0 0.0
2018-Jul-20 20:48N 42°22' W 071°03'0 0.0
2018-Jul-20 20:18N 42°22' W 071°03'0 0.0
2018-Jul-20 19:33N 42°22' W 071°03'0 0.1
2018-Jul-20 19:30N 42°22' W 071°03'0 0.0
2018-Jul-20 19:00N 42°22' W 071°03'0 0.0
2018-Jul-20 18:30N 42°22' W 071°03'0 0.0
2018-Jul-20 18:00N 42°22' W 071°03'0 0.0
2018-Jul-20 17:30N 42°22' W 071°03'0 0.0
2018-Jul-20 17:00N 42°22' W 071°03'0 0.0
2018-Jul-20 16:27N 42°22' W 071°03'0 0.0
2018-Jul-20 16:00N 42°22' W 071°03'0 0.0
2018-Jul-20 15:27N 42°22' W 071°03'0 0.0
2018-Jul-20 15:00N 42°22' W 071°03'0 0.0
2018-Jul-20 14:30N 42°22' W 071°03'0 0.0
2018-Jul-20 13:54N 42°22' W 071°03'0 0.0
2018-Jul-20 13:27N 42°22' W 071°03'0 0.0
2018-Jul-20 01:36N 42°22' W 071°03'0 0.0
2018-Jul-20 01:24N 42°22' W 071°03'0 0.0
2018-Jul-20 01:00N 42°22' W 071°03'0 0.0
2018-Jul-20 00:18N 42°22' W 071°03'0 0.0
2018-Jul-19 23:54N 42°22' W 071°03'0 0.0
2018-Jul-19 23:27N 42°22' W 071°03'0 0.0
2018-Jul-19 22:57N 42°22' W 071°03'0 0.0
2018-Jul-19 22:30N 42°22' W 071°03'0 0.0
2018-Jul-19 22:00N 42°22' W 071°03'0 0.0
2018-Jul-19 21:30N 42°22' W 071°03'0 0.0
2018-Jul-19 20:54N 42°22' W 071°03'0 0.0
2018-Jul-19 20:30N 42°22' W 071°03'0 0.0
2018-Jul-19 19:54N 42°22' W 071°03'0 0.0
2018-Jul-19 18:24N 42°22' W 071°03'0 0.0
2018-Jul-19 12:00N 42°22' W 071°03'0 0.0
2018-Jul-19 02:06N 42°22' W 071°03'0 0.0
2018-Jul-19 01:45N 42°22' W 071°03'0 0.0
2018-Jul-19 01:30N 42°22' W 071°03'0 0.0
2018-Jul-19 01:00N 42°22' W 071°03'  
2018-Jul-14 21:05N 39°02' W 075°09'220.6
2018-Jul-14 21:00N 39°03' W 075°10'1020.3
2018-Jul-14 20:31N 39°12' W 075°17'1121.6
2018-Jul-14 19:59N 39°21' W 075°26'1020.8
2018-Jul-14 19:30N 39°29' W 075°34'510.0
2018-Jul-14 19:01N 39°33' W 075°36'611.4
2018-Jul-14 18:29N 39°32' W 075°44'510.1
2018-Jul-14 18:00N 39°32' W 075°50'5 9.8
2018-Jul-14 17:28N 39°30' W 075°56'3913.0
2018-Jul-14 14:27N 38°58' W 076°26'3 0.1
2018-Jul-13 20:56N 38°58' W 076°29'510.7
2018-Jul-13 20:29N 38°55' W 076°24'31 4.3
2018-Jul-13 13:17N 38°45' W 077°02'310.7
2018-Jul-13 13:00N 38°48' W 077°02'4 7.5
2018-Jul-13 12:25N 38°53' W 077°02'0 0.0
2018-Jul-13 11:58N 38°53' W 077°02'0 0.0
2018-Jul-13 11:28N 38°53' W 077°02'0 0.0
2018-Jul-13 10:55N 38°53' W 077°02'0 0.0
2018-Jul-13 10:28N 38°53' W 077°02'0 0.0
2018-Jul-13 09:58N 38°53' W 077°02'0 0.0
2018-Jul-13 09:28N 38°53' W 077°02'0 0.0
2018-Jul-13 08:58N 38°53' W 077°02'0 0.0
2018-Jul-13 08:28N 38°53' W 077°02'0 0.0
2018-Jul-13 07:58N 38°53' W 077°02'0 0.0
2018-Jul-13 07:28N 38°53' W 077°02'0 0.0
2018-Jul-13 06:58N 38°53' W 077°02'0 0.0
2018-Jul-13 06:28N 38°53' W 077°02'0 0.0
2018-Jul-13 05:58N 38°53' W 077°02'0 0.0
2018-Jul-13 05:28N 38°53' W 077°02'0 0.0
2018-Jul-13 04:58N 38°53' W 077°02'0 0.0
2018-Jul-13 04:22N 38°53' W 077°02'0 0.0
2018-Jul-13 03:58N 38°53' W 077°02'0 0.0
2018-Jul-13 03:28N 38°53' W 077°02'0 0.0
2018-Jul-13 02:58N 38°53' W 077°02'0 0.0
2018-Jul-13 02:28N 38°53' W 077°02'0 0.0
2018-Jul-13 01:58N 38°53' W 077°02'0 0.0
2018-Jul-13 01:28N 38°53' W 077°02'0 0.0
2018-Jul-13 00:58N 38°53' W 077°02'0 0.0
2018-Jul-13 00:28N 38°53' W 077°02'0 0.0
2018-Jul-12 23:58N 38°53' W 077°02'0 0.0
2018-Jul-12 23:28N 38°53' W 077°02'0 0.0
2018-Jul-12 22:58N 38°53' W 077°02'0 0.0
2018-Jul-12 22:28N 38°53' W 077°02'0 0.0
2018-Jul-12 21:58N 38°53' W 077°02'0 0.0
2018-Jul-12 21:28N 38°53' W 077°02'0 0.0
2018-Jul-12 20:55N 38°53' W 077°02'0 0.0
2018-Jul-12 20:19N 38°53' W 077°02'0 0.0
2018-Jul-12 19:55N 38°53' W 077°02'0 0.0
2018-Jul-12 19:28N 38°53' W 077°02'0 0.0
2018-Jul-12 18:58N 38°53' W 077°02'1 2.3
2018-Jul-12 18:29N 38°52' W 077°01'0 0.1
2018-Jul-12 17:56N 38°52' W 077°01'0 0.0
2018-Jul-12 17:30N 38°52' W 077°01'1 2.1
2018-Jul-12 16:59N 38°53' W 077°02'0 0.0
2018-Jul-12 16:26N 38°53' W 077°02'0 0.0
2018-Jul-12 15:59N 38°53' W 077°02'0 0.0
2018-Jul-12 15:26N 38°53' W 077°02'0 0.0
2018-Jul-12 14:59N 38°53' W 077°02'0 0.0
2018-Jul-12 14:29N 38°53' W 077°02'0 0.0
2018-Jul-12 14:00N 38°53' W 077°02'0 0.0
2018-Jul-12 13:29N 38°53' W 077°02'0 0.0
2018-Jul-12 13:00N 38°53' W 077°02'0 0.0
2018-Jul-12 12:29N 38°53' W 077°02'0 0.0
2018-Jul-12 11:59N 38°53' W 077°02'0 0.0
2018-Jul-12 11:26N 38°53' W 077°02'0 0.0
2018-Jul-12 10:59N 38°53' W 077°02'0 0.0
2018-Jul-12 10:29N 38°53' W 077°02'0 0.0
2018-Jul-12 09:59N 38°53' W 077°02'0 0.0
2018-Jul-12 09:29N 38°53' W 077°02'0 0.0
2018-Jul-12 08:59N 38°53' W 077°02'0 0.0
2018-Jul-12 08:29N 38°53' W 077°02'0 0.0
2018-Jul-12 07:59N 38°53' W 077°02'0 0.0
2018-Jul-12 07:26N 38°53' W 077°02'0 0.0
2018-Jul-12 06:59N 38°53' W 077°02'0 0.0
2018-Jul-12 06:29N 38°53' W 077°02'0 0.0
2018-Jul-12 05:59N 38°53' W 077°02'0 0.0
2018-Jul-12 05:29N 38°53' W 077°02'0 0.0
2018-Jul-12 04:59N 38°53' W 077°02'0 0.0
2018-Jul-12 04:29N 38°53' W 077°02'0 0.0
2018-Jul-12 03:56N 38°53' W 077°02'0 0.0
2018-Jul-12 03:29N 38°53' W 077°02'0 0.0
2018-Jul-12 02:59N 38°53' W 077°02'0 0.0
2018-Jul-12 02:29N 38°53' W 077°02'0 0.0
2018-Jul-12 01:59N 38°53' W 077°02'0 0.0
2018-Jul-12 01:29N 38°53' W 077°02'0 0.0
2018-Jul-12 00:59N 38°53' W 077°02'0 0.0
2018-Jul-12 00:29N 38°53' W 077°02'0 0.0
2018-Jul-11 23:59N 38°53' W 077°02'0 0.0
2018-Jul-11 23:29N 38°53' W 077°02'0 0.0
2018-Jul-11 22:59N 38°53' W 077°02'0 0.0
2018-Jul-11 22:29N 38°53' W 077°02'0 0.0
2018-Jul-11 21:59N 38°53' W 077°02'0 0.0
2018-Jul-11 21:29N 38°53' W 077°02'0 0.0
2018-Jul-11 20:59N 38°53' W 077°02'0 0.0
2018-Jul-11 20:29N 38°53' W 077°02'0 0.0
2018-Jul-11 19:59N 38°53' W 077°02'0 0.0
2018-Jul-11 19:29N 38°53' W 077°02'0 0.0
2018-Jul-11 18:59N 38°53' W 077°02'0 0.0
2018-Jul-11 18:29N 38°53' W 077°02'0 0.0
2018-Jul-11 17:59N 38°53' W 077°02'0 0.0
2018-Jul-11 17:17N 38°53' W 077°02'0 0.0
2018-Jul-11 16:56N 38°53' W 077°02'0 0.0
2018-Jul-11 16:29N 38°53' W 077°02'0 0.0
2018-Jul-11 15:59N 38°53' W 077°02'0 0.0
2018-Jul-11 15:29N 38°53' W 077°02'0 0.0
2018-Jul-11 14:59N 38°53' W 077°02'0 0.0
2018-Jul-11 14:29N 38°53' W 077°02'0 0.0
2018-Jul-11 13:59N 38°53' W 077°02'0 0.0
2018-Jul-11 13:29N 38°53' W 077°02'  

Dump ship's entire track history